<?xml version="1.0" encoding="UTF-8" standalone="no" ?>
<gpx xmlns="http://www.topografix.com/GPX/1/1" xmlns:xsi="http://www.w3.org/2001/XMLSchema-instance" xsi:schemaLocation="http://www.topografix.com/GPX/1/1 http://www.topografix.com/GPX/1/1/gpx.xsd" version="1.1" creator="VisuGPX - https://www.visugpx.com">
  <metadata>
    <name>Norvège</name>
  </metadata>
  <trk>
    <name><![CDATA[Tour d'Europe: étape 033]]></name>
    <trkseg>
      <trkpt lat="62.33873" lon="5.87569">
        <ele>131.643359</ele>
        <time>2020-07-31T07:58:34.211Z</time>
      </trkpt>
      <trkpt lat="62.33804" lon="5.87973">
        <ele>135.262444</ele>
        <time>2020-07-31T08:00:25.189Z</time>
      </trkpt>
      <trkpt lat="62.33892" lon="5.88317">
        <ele>146.962222</ele>
        <time>2020-07-31T08:02:26.176Z</time>
      </trkpt>
      <trkpt lat="62.33976" lon="5.88669">
        <ele>156.436186</ele>
        <time>2020-07-31T08:04:16.209Z</time>
      </trkpt>
      <trkpt lat="62.3404" lon="5.89094">
        <ele>164.251333</ele>
        <time>2020-07-31T08:06:04.176Z</time>
      </trkpt>
      <trkpt lat="62.34109" lon="5.89495">
        <ele>173.499508</ele>
        <time>2020-07-31T08:07:47.172Z</time>
      </trkpt>
      <trkpt lat="62.34187" lon="5.89876">
        <ele>186.986062</ele>
        <time>2020-07-31T08:09:48.177Z</time>
      </trkpt>
      <trkpt lat="62.34265" lon="5.90267">
        <ele>198.194362</ele>
        <time>2020-07-31T08:11:47.162Z</time>
      </trkpt>
      <trkpt lat="62.34354" lon="5.90638">
        <ele>205.099015</ele>
        <time>2020-07-31T08:13:37.175Z</time>
      </trkpt>
      <trkpt lat="62.34502" lon="5.90997">
        <ele>199.557079</ele>
        <time>2020-07-31T08:14:38.195Z</time>
      </trkpt>
      <trkpt lat="62.34673" lon="5.91352">
        <ele>184.526572</ele>
        <time>2020-07-31T08:15:01.157Z</time>
      </trkpt>
      <trkpt lat="62.34796" lon="5.91796">
        <ele>169.957353</ele>
        <time>2020-07-31T08:15:21.154Z</time>
      </trkpt>
      <trkpt lat="62.34909" lon="5.92313">
        <ele>151.382844</ele>
        <time>2020-07-31T08:15:42.195Z</time>
      </trkpt>
      <trkpt lat="62.35006" lon="5.92752">
        <ele>135.695012</ele>
        <time>2020-07-31T08:16:04.160Z</time>
      </trkpt>
      <trkpt lat="62.35098" lon="5.93187">
        <ele>123.288385</ele>
        <time>2020-07-31T08:16:24.182Z</time>
      </trkpt>
      <trkpt lat="62.35183" lon="5.93556">
        <ele>115.991247</ele>
        <time>2020-07-31T08:16:44.177Z</time>
      </trkpt>
      <trkpt lat="62.3529" lon="5.94015">
        <ele>109.955899</ele>
        <time>2020-07-31T08:17:14.199Z</time>
      </trkpt>
      <trkpt lat="62.35343" lon="5.94615">
        <ele>98.158057</ele>
        <time>2020-07-31T08:17:49.169Z</time>
      </trkpt>
      <trkpt lat="62.35426" lon="5.95166">
        <ele>92.18748</ele>
        <time>2020-07-31T08:18:29.170Z</time>
      </trkpt>
      <trkpt lat="62.35504" lon="5.95643">
        <ele>89.345201</ele>
        <time>2020-07-31T08:19:13.192Z</time>
      </trkpt>
      <trkpt lat="62.35554" lon="5.96151">
        <ele>85.560414</ele>
        <time>2020-07-31T08:19:53.156Z</time>
      </trkpt>
      <trkpt lat="62.3561" lon="5.966">
        <ele>85.066395</ele>
        <time>2020-07-31T08:20:43.178Z</time>
      </trkpt>
      <trkpt lat="62.35746" lon="5.96953">
        <ele>80.994409</ele>
        <time>2020-07-31T08:21:25.212Z</time>
      </trkpt>
      <trkpt lat="62.35903" lon="5.97354">
        <ele>77.035395</ele>
        <time>2020-07-31T08:22:06.162Z</time>
      </trkpt>
      <trkpt lat="62.36039" lon="5.97699">
        <ele>75.752838</ele>
        <time>2020-07-31T08:22:50.178Z</time>
      </trkpt>
      <trkpt lat="62.36172" lon="5.98038">
        <ele>81.00815</ele>
        <time>2020-07-31T08:24:03.156Z</time>
      </trkpt>
      <trkpt lat="62.36297" lon="5.98445">
        <ele>81.333601</ele>
        <time>2020-07-31T08:25:10.174Z</time>
      </trkpt>
      <trkpt lat="62.36411" lon="5.98824">
        <ele>79.958187</ele>
        <time>2020-07-31T08:25:54.176Z</time>
      </trkpt>
      <trkpt lat="62.36538" lon="5.99243">
        <ele>77.479251</ele>
        <time>2020-07-31T08:26:49.211Z</time>
      </trkpt>
      <trkpt lat="62.36619" lon="5.99678">
        <ele>72.916659</ele>
        <time>2020-07-31T08:27:29.193Z</time>
      </trkpt>
      <trkpt lat="62.36687" lon="6.00109">
        <ele>70.125204</ele>
        <time>2020-07-31T08:28:09.171Z</time>
      </trkpt>
      <trkpt lat="62.36778" lon="6.00482">
        <ele>70.545691</ele>
        <time>2020-07-31T08:28:49.196Z</time>
      </trkpt>
      <trkpt lat="62.36885" lon="6.00861">
        <ele>72.691375</ele>
        <time>2020-07-31T08:29:46.172Z</time>
      </trkpt>
      <trkpt lat="62.37003" lon="6.01288">
        <ele>74.287584</ele>
        <time>2020-07-31T08:30:41.176Z</time>
      </trkpt>
      <trkpt lat="62.36939" lon="6.01735">
        <ele>71.068007</ele>
        <time>2020-07-31T08:31:26.172Z</time>
      </trkpt>
      <trkpt lat="62.36949" lon="6.02192">
        <ele>66.623353</ele>
        <time>2020-07-31T08:32:10.148Z</time>
      </trkpt>
      <trkpt lat="62.37004" lon="6.02697">
        <ele>60.539234</ele>
        <time>2020-07-31T08:32:56.174Z</time>
      </trkpt>
      <trkpt lat="62.3694" lon="6.03014">
        <ele>54.047207</ele>
        <time>2020-07-31T08:34:01.181Z</time>
      </trkpt>
      <trkpt lat="62.37022" lon="6.03057">
        <ele>54.048677</ele>
        <time>2020-07-31T08:40:23.155Z</time>
      </trkpt>
      <trkpt lat="62.39472" lon="6.16139">
        <ele>53.825389</ele>
        <time>2020-07-31T09:04:34.104Z</time>
      </trkpt>
      <trkpt lat="62.39531" lon="6.16658">
        <ele>59.376139</ele>
        <time>2020-07-31T09:09:27.112Z</time>
      </trkpt>
      <trkpt lat="62.39574" lon="6.17061">
        <ele>63.455429</ele>
        <time>2020-07-31T09:11:23.138Z</time>
      </trkpt>
      <trkpt lat="62.39581" lon="6.17488">
        <ele>70.029155</ele>
        <time>2020-07-31T09:12:53.089Z</time>
      </trkpt>
      <trkpt lat="62.39585" lon="6.17963">
        <ele>71.970034</ele>
        <time>2020-07-31T09:14:04.090Z</time>
      </trkpt>
      <trkpt lat="62.39616" lon="6.18449">
        <ele>73.891937</ele>
        <time>2020-07-31T09:15:04.101Z</time>
      </trkpt>
      <trkpt lat="62.39642" lon="6.189">
        <ele>67.563718</ele>
        <time>2020-07-31T09:15:48.103Z</time>
      </trkpt>
      <trkpt lat="62.39613" lon="6.19479">
        <ele>60.710316</ele>
        <time>2020-07-31T09:16:28.120Z</time>
      </trkpt>
      <trkpt lat="62.39646" lon="6.19917">
        <ele>65.05607</ele>
        <time>2020-07-31T09:17:11.105Z</time>
      </trkpt>
      <trkpt lat="62.39708" lon="6.20401">
        <ele>70.386988</ele>
        <time>2020-07-31T09:18:11.088Z</time>
      </trkpt>
      <trkpt lat="62.3976" lon="6.20843">
        <ele>72.94444</ele>
        <time>2020-07-31T09:19:19.112Z</time>
      </trkpt>
      <trkpt lat="62.39822" lon="6.21318">
        <ele>76.645847</ele>
        <time>2020-07-31T09:20:22.094Z</time>
      </trkpt>
      <trkpt lat="62.3985" lon="6.2176">
        <ele>74.91194</ele>
        <time>2020-07-31T09:21:09.120Z</time>
      </trkpt>
      <trkpt lat="62.39934" lon="6.22198">
        <ele>69.437599</ele>
        <time>2020-07-31T09:21:58.087Z</time>
      </trkpt>
      <trkpt lat="62.40026" lon="6.22597">
        <ele>70.871568</ele>
        <time>2020-07-31T09:22:40.113Z</time>
      </trkpt>
      <trkpt lat="62.40127" lon="6.2306">
        <ele>75.352799</ele>
        <time>2020-07-31T09:23:40.134Z</time>
      </trkpt>
      <trkpt lat="62.40184" lon="6.23502">
        <ele>80.810375</ele>
        <time>2020-07-31T09:24:52.160Z</time>
      </trkpt>
      <trkpt lat="62.40298" lon="6.23859">
        <ele>93.767034</ele>
        <time>2020-07-31T09:26:33.152Z</time>
      </trkpt>
      <trkpt lat="62.40427" lon="6.24188">
        <ele>100.918239</ele>
        <time>2020-07-31T09:28:15.104Z</time>
      </trkpt>
      <trkpt lat="62.40497" lon="6.24671">
        <ele>99.682997</ele>
        <time>2020-07-31T09:29:21.091Z</time>
      </trkpt>
      <trkpt lat="62.40651" lon="6.24974">
        <ele>104.610632</ele>
        <time>2020-07-31T09:30:32.088Z</time>
      </trkpt>
      <trkpt lat="62.40818" lon="6.25278">
        <ele>104.862472</ele>
        <time>2020-07-31T09:31:33.126Z</time>
      </trkpt>
      <trkpt lat="62.40977" lon="6.2565">
        <ele>97.734197</ele>
        <time>2020-07-31T09:32:13.103Z</time>
      </trkpt>
      <trkpt lat="62.41163" lon="6.25907">
        <ele>96.594918</ele>
        <time>2020-07-31T09:33:04.098Z</time>
      </trkpt>
      <trkpt lat="62.41357" lon="6.26089">
        <ele>99.947314</ele>
        <time>2020-07-31T09:34:01.122Z</time>
      </trkpt>
      <trkpt lat="62.41569" lon="6.2618">
        <ele>98.051435</ele>
        <time>2020-07-31T09:35:06.137Z</time>
      </trkpt>
      <trkpt lat="62.41754" lon="6.26368">
        <ele>100.853686</ele>
        <time>2020-07-31T09:35:54.088Z</time>
      </trkpt>
      <trkpt lat="62.41887" lon="6.26762">
        <ele>98.666752</ele>
        <time>2020-07-31T09:37:32.132Z</time>
      </trkpt>
      <trkpt lat="62.42067" lon="6.27045">
        <ele>79.216459</ele>
        <time>2020-07-31T09:38:15.124Z</time>
      </trkpt>
      <trkpt lat="62.42079" lon="6.27375">
        <ele>61.120548</ele>
        <time>2020-07-31T09:39:06.097Z</time>
      </trkpt>
      <trkpt lat="62.42219" lon="6.277">
        <ele>64.831485</ele>
        <time>2020-07-31T09:40:13.148Z</time>
      </trkpt>
      <trkpt lat="62.4225" lon="6.28157">
        <ele>69.139657</ele>
        <time>2020-07-31T09:41:14.164Z</time>
      </trkpt>
      <trkpt lat="62.42204" lon="6.2857">
        <ele>75.704564</ele>
        <time>2020-07-31T09:42:29.138Z</time>
      </trkpt>
      <trkpt lat="62.42177" lon="6.29017">
        <ele>75.96194</ele>
        <time>2020-07-31T09:43:35.133Z</time>
      </trkpt>
      <trkpt lat="62.42216" lon="6.29481">
        <ele>80.659737</ele>
        <time>2020-07-31T09:44:24.089Z</time>
      </trkpt>
      <trkpt lat="62.42365" lon="6.29834">
        <ele>79.387241</ele>
        <time>2020-07-31T09:45:15.122Z</time>
      </trkpt>
      <trkpt lat="62.42516" lon="6.30344">
        <ele>70.93675</ele>
        <time>2020-07-31T09:45:55.085Z</time>
      </trkpt>
      <trkpt lat="62.42586" lon="6.30743">
        <ele>73.683652</ele>
        <time>2020-07-31T09:47:07.102Z</time>
      </trkpt>
      <trkpt lat="62.42703" lon="6.31108">
        <ele>78.427457</ele>
        <time>2020-07-31T09:48:15.105Z</time>
      </trkpt>
      <trkpt lat="62.42785" lon="6.31554">
        <ele>75.065491</ele>
        <time>2020-07-31T09:49:24.125Z</time>
      </trkpt>
      <trkpt lat="62.42742" lon="6.32037">
        <ele>71.450448</ele>
        <time>2020-07-31T09:50:09.101Z</time>
      </trkpt>
      <trkpt lat="62.42763" lon="6.3245">
        <ele>77.126855</ele>
        <time>2020-07-31T09:51:09.103Z</time>
      </trkpt>
      <trkpt lat="62.42891" lon="6.32805">
        <ele>78.264437</ele>
        <time>2020-07-31T09:51:53.155Z</time>
      </trkpt>
      <trkpt lat="62.42936" lon="6.33282">
        <ele>62.662608</ele>
        <time>2020-07-31T09:52:38.109Z</time>
      </trkpt>
      <trkpt lat="62.42943" lon="6.33891">
        <ele>52.276555</ele>
        <time>2020-07-31T09:53:17.114Z</time>
      </trkpt>
      <trkpt lat="62.43021" lon="6.34369">
        <ele>54.062489</ele>
        <time>2020-07-31T09:54:06.135Z</time>
      </trkpt>
      <trkpt lat="62.43099" lon="6.3479">
        <ele>58.183936</ele>
        <time>2020-07-31T09:55:02.095Z</time>
      </trkpt>
      <trkpt lat="62.43087" lon="6.35261">
        <ele>57.984812</ele>
        <time>2020-07-31T09:55:53.111Z</time>
      </trkpt>
      <trkpt lat="62.43164" lon="6.35586">
        <ele>68.43627</ele>
        <time>2020-07-31T09:57:38.136Z</time>
      </trkpt>
      <trkpt lat="62.43361" lon="6.35728">
        <ele>75.806408</ele>
        <time>2020-07-31T09:59:04.117Z</time>
      </trkpt>
      <trkpt lat="62.43565" lon="6.3585">
        <ele>77.937237</ele>
        <time>2020-07-31T10:00:32.097Z</time>
      </trkpt>
      <trkpt lat="62.43771" lon="6.35962">
        <ele>77.412679</ele>
        <time>2020-07-31T10:01:20.128Z</time>
      </trkpt>
      <trkpt lat="62.43961" lon="6.3615">
        <ele>74.39934</ele>
        <time>2020-07-31T10:02:19.136Z</time>
      </trkpt>
      <trkpt lat="62.44188" lon="6.36243">
        <ele>71.38442</ele>
        <time>2020-07-31T10:03:17.144Z</time>
      </trkpt>
      <trkpt lat="62.44339" lon="6.36437">
        <ele>69.004339</ele>
        <time>2020-07-31T10:04:24.166Z</time>
      </trkpt>
      <trkpt lat="62.44471" lon="6.36481">
        <ele>73.435937</ele>
        <time>2020-07-31T10:05:47.109Z</time>
      </trkpt>
      <trkpt lat="62.44601" lon="6.36192">
        <ele>79.868073</ele>
        <time>2020-07-31T10:07:37.132Z</time>
      </trkpt>
      <trkpt lat="62.44743" lon="6.35854">
        <ele>82.518386</ele>
        <time>2020-07-31T10:08:43.106Z</time>
      </trkpt>
      <trkpt lat="62.44906" lon="6.35537">
        <ele>87.595017</ele>
        <time>2020-07-31T10:10:03.139Z</time>
      </trkpt>
      <trkpt lat="62.4511" lon="6.35441">
        <ele>88.814797</ele>
        <time>2020-07-31T10:11:03.102Z</time>
      </trkpt>
      <trkpt lat="62.45288" lon="6.35637">
        <ele>90.952438</ele>
        <time>2020-07-31T10:12:11.109Z</time>
      </trkpt>
      <trkpt lat="62.4548" lon="6.35911">
        <ele>84.533801</ele>
        <time>2020-07-31T10:12:55.132Z</time>
      </trkpt>
      <trkpt lat="62.45682" lon="6.36271">
        <ele>75.903621</ele>
        <time>2020-07-31T10:13:35.119Z</time>
      </trkpt>
      <trkpt lat="62.45923" lon="6.36277">
        <ele>73.169512</ele>
        <time>2020-07-31T10:14:18.123Z</time>
      </trkpt>
      <trkpt lat="62.46122" lon="6.36298">
        <ele>73.881015</ele>
        <time>2020-07-31T10:15:26.142Z</time>
      </trkpt>
      <trkpt lat="62.46329" lon="6.36506">
        <ele>80.804738</ele>
        <time>2020-07-31T10:16:25.121Z</time>
      </trkpt>
      <trkpt lat="62.46488" lon="6.36305">
        <ele>78.241752</ele>
        <time>2020-07-31T10:19:12.126Z</time>
      </trkpt>
      <trkpt lat="62.4665" lon="6.36046">
        <ele>87.630753</ele>
        <time>2020-07-31T10:20:42.141Z</time>
      </trkpt>
      <trkpt lat="62.4674" lon="6.36236">
        <ele>95.962177</ele>
        <time>2020-07-31T10:22:07.144Z</time>
      </trkpt>
      <trkpt lat="62.46829" lon="6.36585">
        <ele>101.678969</ele>
        <time>2020-07-31T10:23:27.135Z</time>
      </trkpt>
      <trkpt lat="62.47034" lon="6.36516">
        <ele>101.333488</ele>
        <time>2020-07-31T10:24:36.120Z</time>
      </trkpt>
      <trkpt lat="62.47227" lon="6.36488">
        <ele>93.590168</ele>
        <time>2020-07-31T10:26:26.103Z</time>
      </trkpt>
      <trkpt lat="62.47386" lon="6.3679">
        <ele>89.520635</ele>
        <time>2020-07-31T10:27:26.133Z</time>
      </trkpt>
      <trkpt lat="62.47492" lon="6.36956">
        <ele>80.050778</ele>
        <time>2020-07-31T10:31:17.115Z</time>
      </trkpt>
      <trkpt lat="62.47541" lon="6.37408">
        <ele>76.211507</ele>
        <time>2020-07-31T10:32:31.102Z</time>
      </trkpt>
      <trkpt lat="62.47671" lon="6.3778">
        <ele>72.130354</ele>
        <time>2020-07-31T10:33:28.155Z</time>
      </trkpt>
      <trkpt lat="62.47848" lon="6.37746">
        <ele>77.142251</ele>
        <time>2020-07-31T10:34:57.112Z</time>
      </trkpt>
      <trkpt lat="62.47987" lon="6.37957">
        <ele>81.407814</ele>
        <time>2020-07-31T10:36:35.106Z</time>
      </trkpt>
      <trkpt lat="62.47938" lon="6.38061">
        <ele>81.266132</ele>
        <time>2020-07-31T10:37:51.102Z</time>
      </trkpt>
      <trkpt lat="62.48129" lon="6.38376">
        <ele>77.626315</ele>
        <time>2020-07-31T10:38:32.133Z</time>
      </trkpt>
      <trkpt lat="62.48358" lon="6.38621">
        <ele>69.385898</ele>
        <time>2020-07-31T10:39:12.145Z</time>
      </trkpt>
      <trkpt lat="62.48381" lon="6.39143">
        <ele>56.171067</ele>
        <time>2020-07-31T10:39:38.152Z</time>
      </trkpt>
      <trkpt lat="62.48465" lon="6.3957">
        <ele>61.840367</ele>
        <time>2020-07-31T10:40:37.103Z</time>
      </trkpt>
      <trkpt lat="62.48473" lon="6.39974">
        <ele>77.713328</ele>
        <time>2020-07-31T10:42:29.089Z</time>
      </trkpt>
      <trkpt lat="62.485" lon="6.40406">
        <ele>83.474141</ele>
        <time>2020-07-31T10:43:54.134Z</time>
      </trkpt>
      <trkpt lat="62.48685" lon="6.40452">
        <ele>86.550802</ele>
        <time>2020-07-31T10:44:58.129Z</time>
      </trkpt>
      <trkpt lat="62.48852" lon="6.40596">
        <ele>94.986258</ele>
        <time>2020-07-31T10:46:29.121Z</time>
      </trkpt>
      <trkpt lat="62.48863" lon="6.41114">
        <ele>89.056213</ele>
        <time>2020-07-31T10:47:16.186Z</time>
      </trkpt>
      <trkpt lat="62.48906" lon="6.41634">
        <ele>80.359899</ele>
        <time>2020-07-31T10:47:48.109Z</time>
      </trkpt>
      <trkpt lat="62.49015" lon="6.42115">
        <ele>80.635131</ele>
        <time>2020-07-31T10:48:39.095Z</time>
      </trkpt>
      <trkpt lat="62.49163" lon="6.4251">
        <ele>79.682701</ele>
        <time>2020-07-31T10:49:37.113Z</time>
      </trkpt>
      <trkpt lat="62.49204" lon="6.42981">
        <ele>77.953261</ele>
        <time>2020-07-31T10:50:26.147Z</time>
      </trkpt>
      <trkpt lat="62.49221" lon="6.43481">
        <ele>71.848714</ele>
        <time>2020-07-31T10:51:02.086Z</time>
      </trkpt>
      <trkpt lat="62.49255" lon="6.44002">
        <ele>64.227501</ele>
        <time>2020-07-31T10:51:42.102Z</time>
      </trkpt>
      <trkpt lat="62.49272" lon="6.44512">
        <ele>60.718657</ele>
        <time>2020-07-31T10:52:24.137Z</time>
      </trkpt>
      <trkpt lat="62.4928" lon="6.45041">
        <ele>64.703351</ele>
        <time>2020-07-31T10:53:24.133Z</time>
      </trkpt>
      <trkpt lat="62.49328" lon="6.45479">
        <ele>78.891214</ele>
        <time>2020-07-31T10:55:04.115Z</time>
      </trkpt>
      <trkpt lat="62.49453" lon="6.45787">
        <ele>88.561523</ele>
        <time>2020-07-31T10:56:52.118Z</time>
      </trkpt>
      <trkpt lat="62.49694" lon="6.45943">
        <ele>76.790002</ele>
        <time>2020-07-31T10:57:37.115Z</time>
      </trkpt>
      <trkpt lat="62.49811" lon="6.46372">
        <ele>59.079357</ele>
        <time>2020-07-31T10:57:57.099Z</time>
      </trkpt>
      <trkpt lat="62.49875" lon="6.46814">
        <ele>61.883832</ele>
        <time>2020-07-31T10:58:46.116Z</time>
      </trkpt>
      <trkpt lat="62.49997" lon="6.47119">
        <ele>79.276723</ele>
        <time>2020-07-31T11:01:08.128Z</time>
      </trkpt>
      <trkpt lat="62.50128" lon="6.47416">
        <ele>83.92744</ele>
        <time>2020-07-31T11:06:31.151Z</time>
      </trkpt>
      <trkpt lat="62.50108" lon="6.47889">
        <ele>73.766554</ele>
        <time>2020-07-31T11:06:59.100Z</time>
      </trkpt>
      <trkpt lat="62.50024" lon="6.48404">
        <ele>59.574189</ele>
        <time>2020-07-31T11:07:21.115Z</time>
      </trkpt>
      <trkpt lat="62.49991" lon="6.48897">
        <ele>55.325503</ele>
        <time>2020-07-31T11:08:09.131Z</time>
      </trkpt>
      <trkpt lat="62.49878" lon="6.49318">
        <ele>57.917728</ele>
        <time>2020-07-31T11:09:02.121Z</time>
      </trkpt>
      <trkpt lat="62.49892" lon="6.49776">
        <ele>55.640696</ele>
        <time>2020-07-31T11:09:47.147Z</time>
      </trkpt>
      <trkpt lat="62.4978" lon="6.5017">
        <ele>51.781653</ele>
        <time>2020-07-31T11:10:27.119Z</time>
      </trkpt>
      <trkpt lat="62.4986" lon="6.50489">
        <ele>55.86369</ele>
        <time>2020-07-31T11:11:13.149Z</time>
      </trkpt>
      <trkpt lat="62.49987" lon="6.5086">
        <ele>59.234111</ele>
        <time>2020-07-31T11:12:07.126Z</time>
      </trkpt>
      <trkpt lat="62.50042" lon="6.51263">
        <ele>67.649856</ele>
        <time>2020-07-31T11:13:40.114Z</time>
      </trkpt>
      <trkpt lat="62.50152" lon="6.51612">
        <ele>82.279237</ele>
        <time>2020-07-31T11:15:31.112Z</time>
      </trkpt>
      <trkpt lat="62.50163" lon="6.52034">
        <ele>84.352077</ele>
        <time>2020-07-31T11:16:56.120Z</time>
      </trkpt>
      <trkpt lat="62.50145" lon="6.52557">
        <ele>83.123943</ele>
        <time>2020-07-31T11:17:50.154Z</time>
      </trkpt>
      <trkpt lat="62.5001" lon="6.52889">
        <ele>89.229194</ele>
        <time>2020-07-31T11:22:43.115Z</time>
      </trkpt>
      <trkpt lat="62.4983" lon="6.53266">
        <ele>85.784991</ele>
        <time>2020-07-31T11:23:36.090Z</time>
      </trkpt>
      <trkpt lat="62.49701" lon="6.53671">
        <ele>83.188071</ele>
        <time>2020-07-31T11:24:17.130Z</time>
      </trkpt>
      <trkpt lat="62.49588" lon="6.54041">
        <ele>90.585588</ele>
        <time>2020-07-31T11:25:25.100Z</time>
      </trkpt>
      <trkpt lat="62.49504" lon="6.54561">
        <ele>94.43359</ele>
        <time>2020-07-31T11:26:21.105Z</time>
      </trkpt>
      <trkpt lat="62.49487" lon="6.55029">
        <ele>85.408824</ele>
        <time>2020-07-31T11:27:03.102Z</time>
      </trkpt>
      <trkpt lat="62.49563" lon="6.55522">
        <ele>82.825516</ele>
        <time>2020-07-31T11:27:46.113Z</time>
      </trkpt>
      <trkpt lat="62.49635" lon="6.5605">
        <ele>78.871719</ele>
        <time>2020-07-31T11:28:29.118Z</time>
      </trkpt>
      <trkpt lat="62.49677" lon="6.56552">
        <ele>77.005057</ele>
        <time>2020-07-31T11:29:17.161Z</time>
      </trkpt>
      <trkpt lat="62.49632" lon="6.57113">
        <ele>55.639817</ele>
        <time>2020-07-31T11:29:38.125Z</time>
      </trkpt>
      <trkpt lat="62.49691" lon="6.57613">
        <ele>49.549801</ele>
        <time>2020-07-31T11:30:11.117Z</time>
      </trkpt>
      <trkpt lat="62.49745" lon="6.58033">
        <ele>63.020714</ele>
        <time>2020-07-31T11:31:39.102Z</time>
      </trkpt>
      <trkpt lat="62.49796" lon="6.58607">
        <ele>69.864781</ele>
        <time>2020-07-31T11:32:33.189Z</time>
      </trkpt>
      <trkpt lat="62.499" lon="6.58982">
        <ele>73.998974</ele>
        <time>2020-07-31T11:34:36.130Z</time>
      </trkpt>
      <trkpt lat="62.49885" lon="6.59437">
        <ele>80.036226</ele>
        <time>2020-07-31T11:35:44.111Z</time>
      </trkpt>
      <trkpt lat="62.49719" lon="6.59593">
        <ele>95.24789</ele>
        <time>2020-07-31T11:37:46.120Z</time>
      </trkpt>
      <trkpt lat="62.49534" lon="6.59587">
        <ele>89.84159</ele>
        <time>2020-07-31T11:38:48.102Z</time>
      </trkpt>
      <trkpt lat="62.49424" lon="6.60015">
        <ele>81.847268</ele>
        <time>2020-07-31T11:39:54.094Z</time>
      </trkpt>
      <trkpt lat="62.49206" lon="6.6033">
        <ele>74.065725</ele>
        <time>2020-07-31T11:40:38.134Z</time>
      </trkpt>
      <trkpt lat="62.49074" lon="6.60538">
        <ele>81.993909</ele>
        <time>2020-07-31T11:42:30.111Z</time>
      </trkpt>
      <trkpt lat="62.48991" lon="6.61075">
        <ele>79.916848</ele>
        <time>2020-07-31T11:43:33.117Z</time>
      </trkpt>
      <trkpt lat="62.48978" lon="6.6154">
        <ele>84.660245</ele>
        <time>2020-07-31T11:44:11.176Z</time>
      </trkpt>
      <trkpt lat="62.48891" lon="6.61927">
        <ele>97.644945</ele>
        <time>2020-07-31T11:45:48.119Z</time>
      </trkpt>
      <trkpt lat="62.48853" lon="6.62384">
        <ele>96.225063</ele>
        <time>2020-07-31T11:46:44.109Z</time>
      </trkpt>
      <trkpt lat="62.4883" lon="6.62892">
        <ele>87.994698</ele>
        <time>2020-07-31T11:47:28.122Z</time>
      </trkpt>
      <trkpt lat="62.48706" lon="6.63283">
        <ele>84.082454</ele>
        <time>2020-07-31T11:50:32.114Z</time>
      </trkpt>
      <trkpt lat="62.48612" lon="6.63714">
        <ele>79.392611</ele>
        <time>2020-07-31T11:51:30.088Z</time>
      </trkpt>
      <trkpt lat="62.48418" lon="6.64082">
        <ele>72.117588</ele>
        <time>2020-07-31T11:52:06.090Z</time>
      </trkpt>
      <trkpt lat="62.48272" lon="6.64515">
        <ele>60.90521</ele>
        <time>2020-07-31T11:52:36.094Z</time>
      </trkpt>
      <trkpt lat="62.48153" lon="6.6496">
        <ele>59.105464</ele>
        <time>2020-07-31T11:53:22.145Z</time>
      </trkpt>
      <trkpt lat="62.48071" lon="6.65375">
        <ele>61.481117</ele>
        <time>2020-07-31T11:54:18.096Z</time>
      </trkpt>
      <trkpt lat="62.47998" lon="6.65813">
        <ele>68.727376</ele>
        <time>2020-07-31T11:55:05.129Z</time>
      </trkpt>
      <trkpt lat="62.47941" lon="6.6624">
        <ele>70.503288</ele>
        <time>2020-07-31T11:56:10.120Z</time>
      </trkpt>
      <trkpt lat="62.47916" lon="6.66689">
        <ele>71.023964</ele>
        <time>2020-07-31T11:57:07.116Z</time>
      </trkpt>
      <trkpt lat="62.48062" lon="6.66992">
        <ele>75.815641</ele>
        <time>2020-07-31T11:58:28.114Z</time>
      </trkpt>
      <trkpt lat="62.48187" lon="6.6734">
        <ele>81.546681</ele>
        <time>2020-07-31T11:59:57.152Z</time>
      </trkpt>
      <trkpt lat="62.48226" lon="6.67802">
        <ele>77.804672</ele>
        <time>2020-07-31T12:00:57.163Z</time>
      </trkpt>
      <trkpt lat="62.4835" lon="6.68252">
        <ele>58.323263</ele>
        <time>2020-07-31T12:01:40.133Z</time>
      </trkpt>
      <trkpt lat="62.48449" lon="6.68679">
        <ele>53.77629</ele>
        <time>2020-07-31T12:02:28.116Z</time>
      </trkpt>
      <trkpt lat="62.48635" lon="6.6898">
        <ele>52.695559</ele>
        <time>2020-07-31T12:03:17.097Z</time>
      </trkpt>
      <trkpt lat="62.48827" lon="6.69128">
        <ele>52.196581</ele>
        <time>2020-07-31T12:04:29.098Z</time>
      </trkpt>
      <trkpt lat="62.48919" lon="6.69521">
        <ele>54.89841</ele>
        <time>2020-07-31T12:05:27.090Z</time>
      </trkpt>
      <trkpt lat="62.48929" lon="6.69965">
        <ele>63.919619</ele>
        <time>2020-07-31T12:06:59.138Z</time>
      </trkpt>
      <trkpt lat="62.48958" lon="6.70411">
        <ele>73.231651</ele>
        <time>2020-07-31T12:08:45.198Z</time>
      </trkpt>
      <trkpt lat="62.4907" lon="6.7077">
        <ele>77.0245</ele>
        <time>2020-07-31T12:10:12.117Z</time>
      </trkpt>
      <trkpt lat="62.49083" lon="6.7126">
        <ele>73.401004</ele>
        <time>2020-07-31T12:10:49.105Z</time>
      </trkpt>
      <trkpt lat="62.49142" lon="6.71768">
        <ele>62.17144</ele>
        <time>2020-07-31T12:11:11.116Z</time>
      </trkpt>
      <trkpt lat="62.49138" lon="6.72245">
        <ele>51.071602</ele>
        <time>2020-07-31T12:11:32.096Z</time>
      </trkpt>
      <trkpt lat="62.4905" lon="6.72711">
        <ele>53.051743</ele>
        <time>2020-07-31T12:12:11.142Z</time>
      </trkpt>
      <trkpt lat="62.48832" lon="6.72714">
        <ele>64.854138</ele>
        <time>2020-07-31T12:13:20.143Z</time>
      </trkpt>
      <trkpt lat="62.48658" lon="6.72849">
        <ele>60.691507</ele>
        <time>2020-07-31T12:16:20.147Z</time>
      </trkpt>
      <trkpt lat="62.48493" lon="6.72688">
        <ele>79.950595</ele>
        <time>2020-07-31T12:19:17.156Z</time>
      </trkpt>
      <trkpt lat="62.48405" lon="6.72297">
        <ele>89.238877</ele>
        <time>2020-07-31T12:21:00.108Z</time>
      </trkpt>
      <trkpt lat="62.48306" lon="6.71912">
        <ele>97.984024</ele>
        <time>2020-07-31T12:22:28.149Z</time>
      </trkpt>
      <trkpt lat="62.48172" lon="6.71592">
        <ele>106.112134</ele>
        <time>2020-07-31T12:23:53.102Z</time>
      </trkpt>
      <trkpt lat="62.48072" lon="6.71203">
        <ele>119.277511</ele>
        <time>2020-07-31T12:25:21.114Z</time>
      </trkpt>
      <trkpt lat="62.47933" lon="6.70908">
        <ele>95.555727</ele>
        <time>2020-07-31T12:26:22.127Z</time>
      </trkpt>
      <trkpt lat="62.47829" lon="6.71276">
        <ele>85.140383</ele>
        <time>2020-07-31T12:27:29.112Z</time>
      </trkpt>
      <trkpt lat="62.47764" lon="6.71711">
        <ele>89.998588</ele>
        <time>2020-07-31T12:29:40.171Z</time>
      </trkpt>
      <trkpt lat="62.47758" lon="6.72231">
        <ele>94.87423</ele>
        <time>2020-07-31T12:30:37.092Z</time>
      </trkpt>
      <trkpt lat="62.47743" lon="6.72752">
        <ele>97.600731</ele>
        <time>2020-07-31T12:31:35.108Z</time>
      </trkpt>
      <trkpt lat="62.4775" lon="6.73185">
        <ele>101.41575</ele>
        <time>2020-07-31T12:32:15.139Z</time>
      </trkpt>
      <trkpt lat="62.47756" lon="6.73627">
        <ele>99.107679</ele>
        <time>2020-07-31T12:32:56.132Z</time>
      </trkpt>
      <trkpt lat="62.47767" lon="6.74066">
        <ele>92.796387</ele>
        <time>2020-07-31T12:33:39.178Z</time>
      </trkpt>
      <trkpt lat="62.47727" lon="6.74508">
        <ele>86.458905</ele>
        <time>2020-07-31T12:34:19.148Z</time>
      </trkpt>
      <trkpt lat="62.47741" lon="6.75082">
        <ele>79.326132</ele>
        <time>2020-07-31T12:34:51.122Z</time>
      </trkpt>
      <trkpt lat="62.47745" lon="6.75552">
        <ele>74.548225</ele>
        <time>2020-07-31T12:35:16.139Z</time>
      </trkpt>
      <trkpt lat="62.47776" lon="6.7608">
        <ele>72.58925</ele>
        <time>2020-07-31T12:36:13.111Z</time>
      </trkpt>
      <trkpt lat="62.47872" lon="6.76552">
        <ele>71.526251</ele>
        <time>2020-07-31T12:36:50.132Z</time>
      </trkpt>
      <trkpt lat="62.47981" lon="6.76964">
        <ele>62.352085</ele>
        <time>2020-07-31T12:37:10.093Z</time>
      </trkpt>
      <trkpt lat="62.48097" lon="6.77468">
        <ele>57.416871</ele>
        <time>2020-07-31T12:37:46.161Z</time>
      </trkpt>
      <trkpt lat="62.48137" lon="6.77934">
        <ele>60.362725</ele>
        <time>2020-07-31T12:38:34.101Z</time>
      </trkpt>
      <trkpt lat="62.48104" lon="6.7838">
        <ele>60.079356</ele>
        <time>2020-07-31T12:39:18.111Z</time>
      </trkpt>
      <trkpt lat="62.48087" lon="6.78829">
        <ele>58.580036</ele>
        <time>2020-07-31T12:40:01.143Z</time>
      </trkpt>
      <trkpt lat="62.4813" lon="6.79339">
        <ele>58.878939</ele>
        <time>2020-07-31T12:41:04.109Z</time>
      </trkpt>
      <trkpt lat="62.4815" lon="6.798">
        <ele>59.029765</ele>
        <time>2020-07-31T12:41:52.175Z</time>
      </trkpt>
      <trkpt lat="62.482" lon="6.80379">
        <ele>51.034398</ele>
        <time>2020-07-31T12:42:36.130Z</time>
      </trkpt>
      <trkpt lat="62.48266" lon="6.80869">
        <ele>47.920644</ele>
        <time>2020-07-31T12:43:17.118Z</time>
      </trkpt>
      <trkpt lat="62.48268" lon="6.8135">
        <ele>50.258178</ele>
        <time>2020-07-31T12:44:15.116Z</time>
      </trkpt>
      <trkpt lat="62.48219" lon="6.81709">
        <ele>52.128734</ele>
        <time>2020-07-31T12:47:06.125Z</time>
      </trkpt>
      <trkpt lat="62.48131" lon="6.81445">
        <ele>50.389684</ele>
        <time>2020-07-31T13:05:21.126Z</time>
      </trkpt>
      <trkpt lat="62.47943" lon="6.81404">
        <ele>54.517931</ele>
        <time>2020-07-31T13:06:31.118Z</time>
      </trkpt>
      <trkpt lat="62.47837" lon="6.81773">
        <ele>53.174706</ele>
        <time>2020-07-31T13:07:39.124Z</time>
      </trkpt>
      <trkpt lat="62.47624" lon="6.81706">
        <ele>59.824945</ele>
        <time>2020-07-31T13:08:48.128Z</time>
      </trkpt>
      <trkpt lat="62.47435" lon="6.81682">
        <ele>72.098269</ele>
        <time>2020-07-31T13:10:49.129Z</time>
      </trkpt>
      <trkpt lat="62.47291" lon="6.81356">
        <ele>74.642676</ele>
        <time>2020-07-31T13:22:07.569Z</time>
      </trkpt>
    </trkseg>
  </trk>
</gpx>